createdAt,value
2022-09-02T00:04:50.271Z,101801.41
2022-09-02T00:09:53.742Z,101796.94
2022-09-02T00:14:55.511Z,101795.09
2022-09-02T00:19:57.894Z,101787.09
2022-09-02T00:25:01.027Z,101795.94
2022-09-02T00:30:03.653Z,101787.03
2022-09-02T00:35:06.459Z,101786.16
2022-09-02T00:40:12.080Z,101781.69
2022-09-02T00:45:14.385Z,101775.41
2022-09-02T00:50:21.484Z,101786.88
2022-09-02T00:55:29.229Z,101781.59
2022-09-02T01:00:36.769Z,101783.31
2022-09-02T01:05:43.918Z,101780.59
2022-09-02T01:10:48.396Z,101780.56
2022-09-02T01:15:55.188Z,101768.13
2022-09-02T01:20:58.681Z,101766.34
2022-09-02T01:26:02.483Z,101770.72
2022-09-02T01:31:05.090Z,101762.72
2022-09-02T01:36:07.953Z,101751.22
2022-09-02T01:41:11.412Z,101755.59
2022-09-02T01:46:13.936Z,101763.53
2022-09-02T01:51:17.621Z,101768.88
2022-09-02T01:56:21.130Z,101763.47
2022-09-02T02:01:22.905Z,101760.75
2022-09-02T02:06:25.130Z,101750.97
2022-09-02T02:11:28.146Z,101748.31
2022-09-02T02:16:30.070Z,101743.88
2022-09-02T02:21:32.429Z,101739.47
2022-09-02T02:26:36.889Z,101752.75
2022-09-02T02:31:39.511Z,101744.78
2022-09-02T02:36:42.925Z,101747.28
2022-09-02T02:41:46.497Z,101745.47
2022-09-02T02:46:48.595Z,101749.00
2022-09-02T02:51:50.711Z,101746.31
2022-09-02T02:56:54.053Z,101744.47
2022-09-02T03:01:56.096Z,101746.19
2022-09-02T03:06:58.346Z,101735.59
2022-09-02T03:12:02.198Z,101745.25
2022-09-02T03:17:04.705Z,101740.88
2022-09-02T03:22:07.509Z,101739.06
2022-09-02T03:27:10.909Z,101739.88
2022-09-02T03:32:12.744Z,101737.22
2022-09-02T03:37:17.172Z,101732.81
2022-09-02T03:42:20.801Z,101728.28
2022-09-02T03:47:22.568Z,101729.97
2022-09-02T03:52:26.717Z,101724.59
2022-09-02T03:57:30.141Z,101722.81
2022-09-02T04:02:31.935Z,101732.50
2022-09-02T04:07:34.130Z,101728.03
2022-09-02T04:12:38.381Z,101728.06
2022-09-02T04:17:41.696Z,101726.25
2022-09-02T04:22:44.024Z,101726.19
2022-09-02T04:27:47.779Z,101732.47
2022-09-02T04:32:50.148Z,101730.88
2022-09-02T04:37:51.935Z,101742.47
2022-09-02T04:42:55.526Z,101739.66
2022-09-02T04:47:57.834Z,101735.22
2022-09-02T04:53:00.241Z,101736.22
2022-09-02T04:58:03.573Z,101744.28
2022-09-02T05:03:05.494Z,101747.09
2022-09-02T05:08:07.529Z,101734.94
2022-09-02T05:13:10.607Z,101751.72
2022-09-02T05:18:12.360Z,101754.56
2022-09-02T05:23:14.613Z,101753.94
2022-09-02T05:28:17.789Z,101754.16
2022-09-02T05:33:19.537Z,101754.38
2022-09-02T05:38:21.244Z,101752.75
2022-09-02T05:43:24.516Z,101744.00
2022-09-02T05:48:26.240Z,101754.69
2022-09-02T05:53:28.275Z,101755.56
2022-09-02T05:58:31.323Z,101749.59
2022-09-02T06:03:33.426Z,101753.09
2022-09-02T06:08:35.269Z,101743.56
2022-09-02T06:13:41.190Z,101745.97
2022-09-02T06:18:43.231Z,101749.16
2022-09-02T06:23:45.207Z,101748.72
2022-09-02T06:28:48.296Z,101740.69
2022-09-02T06:33:52.955Z,101751.84
2022-09-02T06:38:57.063Z,101744.75
2022-09-02T06:44:02.532Z,101750.03
2022-09-02T06:49:05.624Z,101750.16
2022-09-02T06:54:08.943Z,101746.25
2022-09-02T06:59:12.757Z,101747.69
2022-09-02T07:04:14.758Z,101746.81
2022-09-02T07:09:18.561Z,101749.28
2022-09-02T07:14:22.379Z,101753.50
2022-09-02T07:19:24.379Z,101748.03
2022-09-02T07:24:26.076Z,101756.56
2022-09-02T07:29:29.169Z,101750.97
2022-09-02T07:34:31.100Z,101747.97
2022-09-02T07:39:33.316Z,101748.47
2022-09-02T07:44:36.415Z,101757.81
2022-09-02T07:55:01.491Z,101766.69
2022-09-02T08:00:05.930Z,101752.75
2022-09-02T08:05:08.738Z,101754.09
2022-09-02T08:10:11.667Z,101761.56
2022-09-02T08:15:15.763Z,101763.16
2022-09-02T08:20:18.937Z,101758.34
2022-09-02T08:25:21.001Z,101756.94
2022-09-02T08:30:24.223Z,101755.41
2022-09-02T08:35:26.706Z,101755.56
2022-09-02T08:40:35.210Z,101741.88
2022-09-02T08:45:40.271Z,101748.34
2022-09-02T08:50:45.098Z,101747.34
2022-09-02T08:55:51.853Z,101746.41
2022-09-02T09:01:03.539Z,101748.50
2022-09-02T09:06:12.730Z,101740.69
2022-09-02T09:11:22.977Z,101734.06
2022-09-02T09:16:38.250Z,101728.09
2022-09-02T09:21:40.980Z,101728.41
2022-09-02T09:26:44.349Z,101730.06
2022-09-02T09:31:57.998Z,101714.09
2022-09-02T09:37:00.134Z,101717.09
2022-09-02T09:42:03.955Z,101702.75
2022-09-02T09:47:08.915Z,101692.50
2022-09-02T09:52:10.609Z,101703.41
2022-09-02T09:57:21.463Z,101684.50
2022-09-02T10:02:28.121Z,101691.13
2022-09-02T10:07:38.690Z,101687.69
2022-09-02T10:12:41.474Z,101675.03
2022-09-02T10:17:54.529Z,101666.44
2022-09-02T10:23:15.737Z,101674.84
2022-09-02T10:28:30.793Z,101668.66
2022-09-02T10:33:41.733Z,101670.78
2022-09-02T10:38:45.358Z,101662.53
2022-09-02T10:44:04.743Z,101660.50
2022-09-02T10:49:15.510Z,101655.91
2022-09-02T10:54:31.078Z,101643.47
2022-09-02T10:59:39.068Z,101640.44
2022-09-02T11:04:47.939Z,101641.66
2022-09-02T11:09:54.887Z,101638.88
2022-09-02T11:15:04.237Z,101639.84
2022-09-02T11:20:15.115Z,101638.25
2022-09-02T11:25:23.409Z,101638.31
2022-09-02T11:30:32.878Z,101626.19
2022-09-02T11:35:37.461Z,101640.03
2022-09-02T11:46:40.311Z,101626.38
2022-09-02T11:52:02.997Z,101617.91
2022-09-02T11:57:07.303Z,101631.41
2022-09-02T12:02:09.765Z,101613.88
2022-09-02T12:07:29.970Z,101600.94
2022-09-02T12:13:02.968Z,101599.34
2022-09-02T12:18:13.169Z,101599.00
2022-09-02T12:23:48.435Z,101591.88
2022-09-02T12:28:52.764Z,101585.13
2022-09-02T12:33:54.498Z,101588.56
2022-09-02T12:39:34.581Z,101572.22
2022-09-02T12:44:44.297Z,101557.31
2022-09-02T12:49:54.930Z,101563.81
2022-09-02T12:54:57.148Z,101556.25
2022-09-02T13:00:00.217Z,101553.88
2022-09-02T13:05:13.703Z,101556.69
2022-09-02T13:10:47.823Z,101547.16
2022-09-02T13:16:13.742Z,101533.53
2022-09-02T13:21:36.745Z,101542.97
2022-09-02T13:27:14.793Z,101533.81
2022-09-02T13:32:23.867Z,101525.22
2022-09-02T13:37:28.280Z,101528.41
2022-09-02T13:42:32.742Z,101522.84
2022-09-02T13:47:37.248Z,101510.56
2022-09-02T13:58:05.850Z,101507.38
2022-09-02T14:03:13.337Z,101496.97
2022-09-02T14:08:18.989Z,101494.50
2022-09-02T14:13:22.316Z,101497.63
2022-09-02T14:18:25.522Z,101489.66
2022-09-02T14:23:28.876Z,101490.31
2022-09-02T14:28:33.390Z,101485.97
2022-09-02T14:33:41.868Z,101476.75
2022-09-02T14:38:51.725Z,101470.25
2022-09-02T14:43:56.716Z,101474.19
2022-09-02T14:49:02.936Z,101472.00
2022-09-02T14:54:05.653Z,101466.53
2022-09-02T14:59:07.373Z,101457.25
2022-09-02T15:04:10.534Z,101457.78
2022-09-02T15:09:13.890Z,101466.22
2022-09-02T15:14:15.628Z,101467.53
2022-09-02T15:19:18.702Z,101456.09
2022-09-02T15:24:20.439Z,101450.34
2022-09-02T15:29:26.370Z,101448.31
2022-09-02T15:34:31.901Z,101443.53
2022-09-02T15:39:33.765Z,101445.03
2022-09-02T15:44:35.483Z,101443.00
2022-09-02T15:49:38.997Z,101451.78
2022-09-02T15:54:40.757Z,101446.69
2022-09-02T15:59:42.768Z,101442.44
2022-09-02T16:04:45.842Z,101446.28
2022-09-02T16:09:48.200Z,101437.16
2022-09-02T16:14:50.145Z,101427.63
2022-09-02T16:19:53.253Z,101433.66
2022-09-02T16:24:55.809Z,101431.88
2022-09-02T16:29:57.588Z,101426.78
2022-09-02T16:35:00.683Z,101424.03
2022-09-02T16:40:03.023Z,101430.81
2022-09-02T16:45:05.377Z,101418.91
2022-09-02T16:50:09.253Z,101420.91
2022-09-02T16:55:11.030Z,101417.41
2022-09-02T17:00:14.637Z,101420.75
2022-09-02T17:05:17.843Z,101423.84
2022-09-02T17:10:19.837Z,101426.94
2022-09-02T17:15:22.032Z,101431.19
2022-09-02T17:20:25.535Z,101437.31
2022-09-02T17:25:27.236Z,101430.22
2022-09-02T17:30:29.095Z,101429.19
2022-09-02T17:35:32.567Z,101430.53
2022-09-02T17:40:34.283Z,101423.31
2022-09-02T17:45:36.306Z,101417.44
2022-09-02T17:50:39.598Z,101419.94
2022-09-02T17:55:41.837Z,101417.66
2022-09-02T18:00:44.091Z,101413.03
2022-09-02T18:06:07.053Z,101426.28
2022-09-02T18:11:09.015Z,101418.38
2022-09-02T18:16:23.546Z,101425.78
2022-09-02T18:21:29.517Z,101436.16
2022-09-02T18:26:48.098Z,101435.41
2022-09-02T18:31:59.788Z,101438.91
2022-09-02T18:37:10.783Z,101445.31
2022-09-02T18:42:24.034Z,101447.25
2022-09-02T18:47:32.697Z,101452.78
2022-09-02T18:52:36.392Z,101453.78
2022-09-02T18:57:45.156Z,101452.97
2022-09-02T19:02:53.800Z,101454.94
2022-09-02T19:08:04.247Z,101466.88
2022-09-02T19:13:06.141Z,101471.97
2022-09-02T19:18:07.868Z,101468.34
2022-09-02T19:23:12.412Z,101472.78
2022-09-02T19:28:16.995Z,101476.25
2022-09-02T19:33:19.151Z,101476.44
2022-09-02T19:38:22.271Z,101482.00
2022-09-02T19:43:24.015Z,101477.53
2022-09-02T19:48:25.828Z,101481.34
2022-09-02T19:53:30.494Z,101494.88
2022-09-02T19:58:33.231Z,101488.25
2022-09-02T20:03:35.515Z,101490.66
2022-09-02T20:08:39.041Z,101502.00
2022-09-02T20:13:41.865Z,101492.19
2022-09-02T20:18:44.275Z,101495.66
2022-09-02T20:23:47.958Z,101494.59
2022-09-02T20:29:00.152Z,101492.00
2022-09-02T20:34:14.925Z,101501.66
2022-09-02T20:39:38.192Z,101505.47
2022-09-02T20:44:56.633Z,101510.03
2022-09-02T20:50:18.370Z,101505.75
2022-09-02T20:55:25.852Z,101511.34
2022-09-02T21:00:27.990Z,101514.06
2022-09-02T21:05:35.268Z,101514.38
2022-09-02T21:10:42.379Z,101512.91
2022-09-02T21:15:49.141Z,101511.22
2022-09-02T21:20:59.539Z,101518.38
2022-09-02T21:26:07.971Z,101516.13
2022-09-02T21:31:19.674Z,101522.28
2022-09-02T21:36:26.809Z,101515.94
2022-09-02T21:41:33.023Z,101521.53
2022-09-02T21:46:46.830Z,101513.72
2022-09-02T21:51:55.659Z,101515.78
2022-09-02T21:57:16.017Z,101509.59
2022-09-02T22:02:25.355Z,101513.25
2022-09-02T22:07:36.060Z,101509.06
2022-09-02T22:12:42.529Z,101512.69
2022-09-02T22:17:50.143Z,101520.75
2022-09-02T22:22:57.604Z,101513.09
2022-09-02T22:28:07.389Z,101517.59
2022-09-02T22:33:14.592Z,101520.50
2022-09-02T22:38:20.349Z,101525.16
2022-09-02T22:43:31.223Z,101519.13
2022-09-02T22:48:42.169Z,101521.16
2022-09-02T22:53:43.985Z,101520.41
2022-09-02T22:58:59.944Z,101514.41
2022-09-02T23:04:13.504Z,101515.38
2022-09-02T23:09:15.522Z,101508.47
2022-09-02T23:14:25.355Z,101505.97
2022-09-02T23:19:38.873Z,101504.28
2022-09-02T23:24:49.170Z,101506.03
2022-09-02T23:29:52.688Z,101503.41
2022-09-02T23:35:13.483Z,101493.75
2022-09-02T23:40:24.538Z,101495.56
2022-09-02T23:45:29.825Z,101487.63
2022-09-02T23:50:42.575Z,101486.72
2022-09-02T23:55:51.611Z,101483.22
